Time;durP1;ratioP1;P1;durP2;ratioP2;P2;SDS_P1;SDS_P2;PMS_P1;PMS_P2;Temp;Humidity;BMP_temperature;BMP_pressure;BME280_temperature;BME280_humidity;BME280_pressure;Samples;Min_cycle;Max_cycle;Signal;HPM_P1;HPM_P2
2023/08/30 00:00:34;;;;;;;7.30;6.60;;;;;;;14.98;100.00;97562.75;4121859;28;21115;-88
2023/08/30 00:02:37;;;;;;;7.20;6.50;;;;;;;14.95;100.00;97555.97;4136383;28;20626;-88
2023/08/30 00:04:40;;;;;;;7.33;6.63;;;;;;;14.93;100.00;97560.56;4131307;28;20700;-89
2023/08/30 00:06:43;;;;;;;8.07;7.23;;;;;;;14.93;100.00;97557.94;4137314;28;20675;-89
2023/08/30 00:08:47;;;;;;;7.87;7.07;;;;;;;14.94;100.00;97551.69;4135316;28;20987;-88
2023/08/30 00:10:51;;;;;;;10.30;8.20;;;;;;;14.95;100.00;97552.53;4138290;28;20641;-88
2023/08/30 00:12:54;;;;;;;9.30;8.23;;;;;;;14.96;100.00;97549.75;4135567;28;20694;-88
2023/08/30 00:14:59;;;;;;;9.13;8.10;;;;;;;14.95;100.00;97547.28;4132569;28;21259;-89
2023/08/30 00:17:06;;;;;;;9.77;8.50;;;;;;;14.96;100.00;97543.66;4136536;28;20636;-88
2023/08/30 00:19:09;;;;;;;8.73;7.83;;;;;;;14.98;100.00;97541.75;4135653;28;20661;-88
2023/08/30 00:21:12;;;;;;;7.90;7.10;;;;;;;14.99;100.00;97541.59;4140960;28;21506;-88
2023/08/30 00:23:16;;;;;;;9.00;7.10;;;;;;;14.99;100.00;97532.88;4137450;28;20645;-88
2023/08/30 00:25:19;;;;;;;7.63;6.83;;;;;;;14.97;100.00;97540.91;4141533;28;20626;-88
2023/08/30 00:27:22;;;;;;;7.90;7.10;;;;;;;14.93;100.00;97534.28;4135769;28;20977;-89
2023/08/30 00:29:26;;;;;;;7.73;7.00;;;;;;;14.91;100.00;97540.66;4133233;28;21227;-88
2023/08/30 00:31:29;;;;;;;8.07;7.33;;;;;;;14.90;100.00;97531.97;4115858;28;20690;-88
2023/08/30 00:33:33;;;;;;;9.10;7.40;;;;;;;14.89;100.00;97538.16;4123692;28;20644;-89
2023/08/30 00:35:36;;;;;;;8.50;7.60;;;;;;;14.89;100.00;97535.53;4115680;28;20735;-88
2023/08/30 00:37:39;;;;;;;8.30;7.40;;;;;;;14.89;100.00;97537.34;4137110;28;20748;-88
2023/08/30 00:39:42;;;;;;;8.53;7.57;;;;;;;14.87;100.00;97527.00;4124202;28;20716;-88
2023/08/30 00:41:46;;;;;;;10.57;7.10;;;;;;;14.85;100.00;97530.72;4123933;28;20636;-88
2023/08/30 00:43:49;;;;;;;7.93;7.13;;;;;;;14.82;100.00;97523.13;4132902;28;21251;-89
2023/08/30 00:45:52;;;;;;;7.90;7.10;;;;;;;14.80;100.00;97525.91;4122253;28;20645;-88
2023/08/30 00:47:54;;;;;;;8.27;7.23;;;;;;;14.79;100.00;97528.69;4132575;28;21120;-88
2023/08/30 00:49:59;;;;;;;8.30;7.43;;;;;;;14.76;100.00;97526.34;4123648;28;20637;-88
2023/08/30 00:52:04;;;;;;;8.63;7.70;;;;;;;14.74;100.00;97515.97;4136887;28;20653;-88
2023/08/30 00:54:07;;;;;;;8.50;7.67;;;;;;;14.74;100.00;97517.78;4138618;28;20632;-89
2023/08/30 00:56:11;;;;;;;9.83;8.20;;;;;;;14.74;100.00;97518.59;4123516;28;21305;-88
2023/08/30 00:58:14;;;;;;;10.30;8.00;;;;;;;14.76;100.00;97516.69;4139918;28;20633;-88
2023/08/30 01:00:18;;;;;;;11.37;8.20;;;;;;;14.79;100.00;97515.56;4135915;28;21006;-88
2023/08/30 01:02:21;;;;;;;10.50;8.10;;;;;;;14.80;100.00;97517.22;4123732;28;20711;-88
2023/08/30 01:04:28;;;;;;;9.60;8.57;;;;;;;14.81;100.00;97514.44;4143504;28;20675;-89
2023/08/30 01:06:34;;;;;;;10.50;9.40;;;;;;;14.84;100.00;97513.31;4122650;28;21278;-88
2023/08/30 01:08:38;;;;;;;8.33;7.37;;;;;;;14.85;100.00;97510.53;4134311;28;21006;-88
2023/08/30 01:10:48;;;;;;;8.93;8.03;;;;;;;14.86;100.00;97516.63;4137375;28;20640;-89
2023/08/30 01:12:55;;;;;;;9.27;8.30;;;;;;;14.84;100.00;97519.41;4129781;28;20693;-88
2023/08/30 01:15:02;;;;;;;9.87;8.03;;;;;;;14.83;100.00;97509.88;4137378;28;20677;-87
2023/08/30 01:17:04;;;;;;;11.67;9.60;;;;;;;14.85;100.00;97510.53;4154284;28;20622;-87
2023/08/30 01:19:20;;;;;;;11.93;9.67;;;;;;;14.87;100.00;97519.13;4156218;28;20632;-87
2023/08/30 01:21:30;;;;;;;12.13;9.47;;;;;;;14.90;100.00;97513.56;4133270;28;21298;-87
2023/08/30 01:23:41;;;;;;;13.90;10.67;;;;;;;14.92;100.00;97513.44;4136818;28;20704;-88
2023/08/30 01:25:50;;;;;;;13.67;10.07;;;;;;;14.93;100.00;97513.28;4136084;28;20631;-87
2023/08/30 01:27:56;;;;;;;15.73;10.00;;;;;;;14.94;100.00;97516.72;4125813;28;20672;-88
2023/08/30 01:29:59;;;;;;;17.83;10.97;;;;;;;14.94;100.00;97519.34;4142328;28;21288;-87
2023/08/30 01:32:03;;;;;;;18.40;9.27;;;;;;;14.96;100.00;97522.66;4128525;28;20629;-87
2023/08/30 01:34:06;;;;;;;19.67;10.50;;;;;;;14.94;100.00;97514.91;4135733;28;20671;-87
2023/08/30 01:36:10;;;;;;;11.90;10.50;;;;;;;14.95;100.00;97511.34;4127914;28;21204;-88
2023/08/30 01:38:14;;;;;;;12.90;8.80;;;;;;;14.96;100.00;97515.63;4125763;28;20723;-87
2023/08/30 01:40:17;;;;;;;8.87;7.97;;;;;;;14.95;100.00;97511.34;4139459;28;20630;-87
2023/08/30 01:42:22;;;;;;;10.60;8.00;;;;;;;14.94;100.00;97522.81;4137049;28;20740;-88
2023/08/30 01:44:27;;;;;;;12.10;8.47;;;;;;;14.93;100.00;97513.28;4133076;28;20649;-87
2023/08/30 01:46:31;;;;;;;9.80;8.80;;;;;;;14.94;100.00;97520.19;4130831;28;20631;-87
2023/08/30 01:48:34;;;;;;;15.13;9.40;;;;;;;14.94;100.00;97522.81;4122458;28;20639;-87
2023/08/30 01:50:38;;;;;;;9.63;8.63;;;;;;;14.94;100.00;97525.44;4126063;28;20624;-87
2023/08/30 01:52:41;;;;;;;22.37;9.23;;;;;;;14.97;100.00;97522.50;4133234;28;21117;-87
2023/08/30 01:54:45;;;;;;;11.20;8.40;;;;;;;14.96;100.00;97523.50;4145475;28;20633;-87
2023/08/30 01:56:48;;;;;;;11.93;8.13;;;;;;;14.97;100.00;97516.44;4140384;28;20618;-88
2023/08/30 01:58:51;;;;;;;15.67;9.03;;;;;;;14.95;100.00;97516.59;4136563;28;20644;-87
2023/08/30 02:00:56;;;;;;;20.30;8.60;;;;;;;14.96;100.00;97517.41;4139513;28;20627;-87
2023/08/30 02:02:58;;;;;;;18.50;7.53;;;;;;;14.96;100.00;97525.28;4139587;28;20630;-88
2023/08/30 02:05:02;;;;;;;21.70;8.20;;;;;;;14.95;100.00;97519.22;4140857;28;21252;-87
2023/08/30 02:07:10;;;;;;;19.97;8.57;;;;;;;14.95;100.00;97521.84;4125762;28;20625;-87
2023/08/30 02:09:17;;;;;;;12.63;9.57;;;;;;;14.97;100.00;97526.94;4133409;28;20646;-88
2023/08/30 02:11:24;;;;;;;32.23;8.67;;;;;;;14.98;100.00;97521.56;4139646;28;20622;-87
2023/08/30 02:13:30;;;;;;;22.20;8.07;;;;;;;14.96;100.00;97518.25;4148900;28;20759;-87
2023/08/30 02:15:34;;;;;;;27.13;7.47;;;;;;;14.91;100.00;97517.03;4150142;28;20662;-87
2023/08/30 02:17:43;;;;;;;24.40;7.50;;;;;;;14.89;100.00;97522.41;4135265;28;20783;-87
2023/08/30 02:19:47;;;;;;;22.03;7.90;;;;;;;14.89;100.00;97527.66;4126063;28;20686;-87
2023/08/30 02:21:53;;;;;;;14.93;9.00;;;;;;;14.89;100.00;97527.66;4122898;28;20639;-88
2023/08/30 02:23:57;;;;;;;22.43;7.40;;;;;;;14.91;100.00;97527.53;4141550;28;20645;-87
2023/08/30 02:26:00;;;;;;;11.70;7.03;;;;;;;14.88;100.00;97526.00;4132148;28;20670;-87
2023/08/30 02:28:03;;;;;;;14.33;8.70;;;;;;;14.83;100.00;97522.19;4138013;28;21096;-87
2023/08/30 02:30:08;;;;;;;9.73;8.30;;;;;;;14.81;100.00;97519.69;4131344;28;20636;-87
2023/08/30 02:32:11;;;;;;;14.27;10.33;;;;;;;14.79;100.00;97519.03;4149805;28;20650;-87
2023/08/30 02:34:15;;;;;;;13.00;8.70;;;;;;;14.78;100.00;97521.78;4135130;28;20766;-87
2023/08/30 02:36:18;;;;;;;14.90;8.47;;;;;;;14.78;100.00;97519.16;4136370;28;20728;-87
2023/08/30 02:38:21;;;;;;;13.50;8.77;;;;;;;14.77;100.00;97526.19;4135023;28;20698;-87
2023/08/30 02:40:23;;;;;;;19.90;8.40;;;;;;;14.76;100.00;97516.69;4143121;28;20631;-87
2023/08/30 02:42:26;;;;;;;10.27;7.80;;;;;;;14.78;100.00;97519.97;4144716;28;20672;-87
2023/08/30 02:44:29;;;;;;;14.27;8.83;;;;;;;14.77;100.00;97526.19;4122904;28;20634;-87
2023/08/30 02:46:33;;;;;;;10.47;8.60;;;;;;;14.78;100.00;97525.22;4135319;28;20654;-87
2023/08/30 02:48:36;;;;;;;13.53;7.70;;;;;;;14.79;100.00;97524.28;4125289;28;20652;-87
2023/08/30 02:50:40;;;;;;;9.57;8.00;;;;;;;14.78;100.00;97530.47;4137466;28;20648;-88
2023/08/30 02:52:44;;;;;;;11.43;7.07;;;;;;;14.76;100.00;97531.59;4148430;28;20627;-87
2023/08/30 02:54:47;;;;;;;12.60;8.30;;;;;;;14.72;100.00;97531.06;4138679;28;20647;-87
2023/08/30 02:56:51;;;;;;;11.30;8.87;;;;;;;14.73;100.00;97529.25;4135929;28;20639;-87
2023/08/30 02:58:54;;;;;;;9.70;7.27;;;;;;;14.73;100.00;97526.63;4146300;28;20653;-87
2023/08/30 03:00:58;;;;;;;9.73;8.17;;;;;;;14.73;100.00;97522.22;4123393;28;21365;-88
2023/08/30 03:03:01;;;;;;;10.47;7.80;;;;;;;14.71;100.00;97533.81;4138609;28;20644;-87
2023/08/30 03:05:05;;;;;;;9.70;7.43;;;;;;;14.70;100.00;97529.53;4153099;28;20670;-87
2023/08/30 03:07:09;;;;;;;9.33;7.60;;;;;;;14.67;100.00;97525.41;4132834;28;20742;-87
2023/08/30 03:09:12;;;;;;;8.23;7.43;;;;;;;14.66;100.00;97521.13;4116230;28;20641;-87
2023/08/30 03:11:15;;;;;;;7.73;6.50;;;;;;;14.63;100.00;97520.59;4135334;28;20639;-87
2023/08/30 03:13:28;;;;;;;10.00;7.20;;;;;;;14.60;100.00;97515.63;4136041;28;21357;-87
2023/08/30 03:15:32;;;;;;;8.57;7.60;;;;;;;14.59;100.00;97511.34;4134172;28;20635;-87
2023/08/30 03:17:36;;;;;;;8.30;7.37;;;;;;;14.58;100.00;97516.75;4136691;28;21144;-87
2023/08/30 03:19:39;;;;;;;8.40;6.90;;;;;;;14.58;100.00;97511.50;4134153;28;20756;-87
2023/08/30 03:21:43;;;;;;;8.30;7.40;;;;;;;14.58;100.00;97517.56;4138993;28;20675;-87
2023/08/30 03:23:47;;;;;;;8.23;6.27;;;;;;;14.58;100.00;97511.50;4139830;28;20632;-87
2023/08/30 03:25:50;;;;;;;7.90;6.97;;;;;;;14.57;100.00;97515.06;4134877;28;21017;-87
2023/08/30 03:27:53;;;;;;;7.20;6.50;;;;;;;14.53;100.00;97511.91;4125248;28;20701;-87
2023/08/30 03:29:59;;;;;;;6.80;6.10;;;;;;;14.51;100.00;97499.91;4124084;28;20640;-87
2023/08/30 03:32:06;;;;;;;8.00;6.60;;;;;;;14.49;100.00;97505.28;4119928;28;20704;-89
2023/08/30 03:34:09;;;;;;;18.97;7.10;;;;;;;14.51;100.00;97502.53;4138373;28;20713;-87
2023/08/30 03:36:13;;;;;;;12.03;7.20;;;;;;;14.53;100.00;97503.22;4155916;28;20634;-87
2023/08/30 03:38:16;;;;;;;9.40;7.07;;;;;;;14.56;100.00;97502.94;4122137;28;20624;-87
2023/08/30 03:40:21;;;;;;;15.50;7.13;;;;;;;14.58;100.00;97511.50;4135564;28;20632;-87
2023/08/30 03:42:25;;;;;;;9.40;6.90;;;;;;;14.58;100.00;97509.69;4129310;28;20706;-87
2023/08/30 03:44:28;;;;;;;8.20;7.07;;;;;;;14.60;100.00;97502.50;4128182;28;21297;-87
2023/08/30 03:46:31;;;;;;;10.80;7.23;;;;;;;14.59;100.00;97506.91;4138562;28;20648;-88
2023/08/30 03:48:35;;;;;;;8.27;6.77;;;;;;;14.59;100.00;97501.66;4136739;28;21137;-87
2023/08/30 03:50:38;;;;;;;7.40;6.20;;;;;;;14.60;100.00;97511.19;4122999;28;20641;-87
2023/08/30 03:52:42;;;;;;;8.43;6.87;;;;;;;14.59;100.00;97508.72;4137171;28;20644;-87
2023/08/30 03:54:45;;;;;;;9.07;7.20;;;;;;;14.59;100.00;97506.91;4140441;28;20744;-87
2023/08/30 03:56:51;;;;;;;10.87;7.43;;;;;;;14.59;100.00;97506.09;4136972;28;20688;-87
2023/08/30 03:58:54;;;;;;;9.40;6.80;;;;;;;14.62;100.00;97513.69;4138964;28;20638;-87
2023/08/30 04:00:58;;;;;;;8.80;6.70;;;;;;;14.62;100.00;97511.06;4135236;28;21248;-87
2023/08/30 04:03:01;;;;;;;8.40;6.83;;;;;;;14.63;100.00;97515.34;4135344;28;20636;-87
2023/08/30 04:05:08;;;;;;;8.60;6.90;;;;;;;14.62;100.00;97514.50;4132161;28;21266;-87
2023/08/30 04:07:11;;;;;;;7.63;6.57;;;;;;;14.61;100.00;97507.63;4133697;28;20633;-87
2023/08/30 04:09:14;;;;;;;8.30;7.27;;;;;;;14.64;100.00;97515.22;4148440;28;20683;-87
2023/08/30 04:11:17;;;;;;;13.60;7.63;;;;;;;14.65;100.00;97508.97;4113903;28;20635;-87
2023/08/30 04:13:22;;;;;;;9.23;6.93;;;;;;;14.61;100.00;97507.63;4116807;28;20649;-88
2023/08/30 04:15:26;;;;;;;8.17;7.33;;;;;;;14.62;100.00;97514.50;4121823;28;20665;-87
2023/08/30 04:17:29;;;;;;;8.77;7.40;;;;;;;14.61;100.00;97518.13;4131424;28;20631;-87
2023/08/30 04:19:32;;;;;;;9.30;7.93;;;;;;;14.64;100.00;97511.72;4140329;28;20631;-87
2023/08/30 04:21:35;;;;;;;8.67;7.77;;;;;;;14.66;100.00;97521.13;4116784;28;20640;-87
2023/08/30 04:23:39;;;;;;;9.00;7.50;;;;;;;14.67;100.00;97522.78;4133365;28;21135;-87
2023/08/30 04:25:42;;;;;;;10.23;7.67;;;;;;;14.69;100.00;97518.22;4125599;28;20626;-87
2023/08/30 04:27:46;;;;;;;9.27;7.53;;;;;;;14.70;100.00;97522.50;4123020;28;21098;-87
2023/08/30 04:29:50;;;;;;;10.00;7.60;;;;;;;14.70;100.00;97519.88;4117558;28;20665;-87
2023/08/30 04:31:54;;;;;;;17.27;7.90;;;;;;;14.73;100.00;97521.38;4120552;28;20632;-87
2023/08/30 04:33:57;;;;;;;13.03;8.20;;;;;;;14.73;100.00;97516.13;4118976;28;20625;-87
2023/08/30 04:36:00;;;;;;;9.53;7.63;;;;;;;14.74;100.00;97512.53;4124455;28;20724;-87
2023/08/30 04:38:04;;;;;;;10.97;8.00;;;;;;;14.74;100.00;97512.53;4124536;28;20991;-87
2023/08/30 04:40:08;;;;;;;10.90;7.73;;;;;;;14.75;100.00;97514.19;4128085;28;20641;-87
2023/08/30 04:42:12;;;;;;;9.90;7.40;;;;;;;14.77;100.00;97518.31;4140346;28;21170;-87
2023/08/30 04:44:14;;;;;;;10.13;7.57;;;;;;;14.77;100.00;97517.50;4129225;28;21513;-87
2023/08/30 04:46:19;;;;;;;15.33;8.03;;;;;;;14.78;100.00;97524.41;4133877;28;20800;-87
2023/08/30 04:48:24;;;;;;;9.90;7.83;;;;;;;14.78;100.00;97522.59;4135083;28;20662;-87
2023/08/30 04:50:27;;;;;;;11.00;8.20;;;;;;;14.79;100.00;97521.66;4136635;28;20679;-87
2023/08/30 04:52:29;;;;;;;12.07;8.10;;;;;;;14.81;100.00;97513.63;4137721;28;20733;-87
2023/08/30 04:54:33;;;;;;;14.67;8.20;;;;;;;14.81;100.00;97518.88;4123848;28;20656;-87
2023/08/30 04:56:37;;;;;;;17.30;8.70;;;;;;;14.81;100.00;97514.44;4124960;28;20632;-87
2023/08/30 04:58:41;;;;;;;13.23;7.03;;;;;;;14.82;100.00;97516.06;4132710;28;20688;-87
2023/08/30 05:00:46;;;;;;;16.93;8.10;;;;;;;14.81;100.00;97514.44;4134264;28;21191;-87
2023/08/30 05:02:50;;;;;;;20.97;7.67;;;;;;;14.82;100.00;97516.06;4120194;28;20640;-87
2023/08/30 05:04:55;;;;;;;13.00;7.43;;;;;;;14.85;100.00;97512.34;4134285;28;20713;-87
2023/08/30 05:06:58;;;;;;;10.30;8.00;;;;;;;14.86;100.00;97511.38;4140530;28;21316;-87
2023/08/30 05:09:02;;;;;;;15.93;8.90;;;;;;;14.83;100.00;97512.50;4119515;28;20780;-87
2023/08/30 05:11:05;;;;;;;9.50;7.50;;;;;;;14.84;100.00;97511.53;4134731;28;20627;-87
2023/08/30 05:13:09;;;;;;;12.60;7.50;;;;;;;14.83;100.00;97507.25;4117181;28;20686;-87
2023/08/30 05:15:13;;;;;;;12.73;7.83;;;;;;;14.82;100.00;97505.56;4122527;28;20730;-87
2023/08/30 05:17:16;;;;;;;14.93;7.90;;;;;;;14.82;100.00;97507.38;4141798;28;20701;-87
2023/08/30 05:19:21;;;;;;;12.73;7.03;;;;;;;14.81;100.00;97501.31;4140470;28;20640;-87
2023/08/30 05:21:25;;;;;;;11.13;7.37;;;;;;;14.81;100.00;97503.13;4144824;28;20669;-87
2023/08/30 05:23:28;;;;;;;12.20;7.50;;;;;;;14.83;100.00;97507.25;4141316;28;20679;-87
2023/08/30 05:25:32;;;;;;;10.37;8.60;;;;;;;14.84;100.00;97508.91;4139571;28;20626;-87
2023/08/30 05:27:34;;;;;;;9.57;8.27;;;;;;;14.89;100.00;97505.84;4137870;28;20655;-87
2023/08/30 05:29:37;;;;;;;9.50;8.20;;;;;;;14.92;100.00;97509.00;4127557;28;20664;-87
2023/08/30 05:31:41;;;;;;;11.87;8.73;;;;;;;14.92;100.00;97511.63;4134802;28;20722;-87
2023/08/30 05:34:07;;;;;;;15.00;8.50;;;;;;;14.94;100.00;97509.66;4126340;28;20663;-87
2023/08/30 05:36:18;;;;;;;11.50;7.90;;;;;;;14.95;100.00;97510.53;4134560;28;20660;-87
2023/08/30 05:38:39;;;;;;;12.03;7.00;;;;;;;14.94;100.00;97504.41;4135292;28;20683;-87
2023/08/30 05:41:02;;;;;;;13.37;8.10;;;;;;;14.92;100.00;97501.13;4137875;28;20637;-87
2023/08/30 05:43:05;;;;;;;12.23;7.67;;;;;;;14.94;100.00;97508.84;4149766;28;20639;-87
2023/08/30 05:45:09;;;;;;;9.87;8.07;;;;;;;14.97;100.00;97509.38;4123755;28;21208;-87
2023/08/30 05:47:15;;;;;;;13.10;7.77;;;;;;;14.98;100.00;97505.78;4141210;28;20639;-87
2023/08/30 05:49:18;;;;;;;9.73;8.00;;;;;;;15.01;100.00;97502.88;4135611;28;20643;-87
2023/08/30 05:51:22;;;;;;;10.20;7.43;;;;;;;15.04;100.00;97513.09;4124221;28;20638;-88
2023/08/30 05:53:25;;;;;;;12.10;7.77;;;;;;;15.08;100.00;97511.84;4123754;28;20673;-87
2023/08/30 05:55:29;;;;;;;18.37;8.77;;;;;;;15.08;100.00;97517.09;4135134;28;20682;-87
2023/08/30 05:57:33;;;;;;;12.87;8.23;;;;;;;15.10;100.00;97509.88;4140035;28;20646;-87
2023/08/30 05:59:36;;;;;;;9.60;7.70;;;;;;;15.12;100.00;97518.44;4133849;28;20687;-88
2023/08/30 06:01:41;;;;;;;9.30;7.80;;;;;;;15.15;100.00;97520.75;4135419;28;21197;-88
2023/08/30 06:03:45;;;;;;;9.37;8.00;;;;;;;15.18;100.00;97520.50;4123467;28;20661;-87
2023/08/30 06:05:49;;;;;;;10.73;8.43;;;;;;;15.20;100.00;97516.78;4120921;28;20670;-87
2023/08/30 06:07:54;;;;;;;9.33;8.33;;;;;;;15.23;100.00;97523.50;4125210;28;20623;-88
2023/08/30 06:09:57;;;;;;;9.07;8.10;;;;;;;15.26;100.00;97520.59;4132253;28;20648;-88
2023/08/30 06:12:01;;;;;;;11.80;8.40;;;;;;;15.28;100.00;97518.66;4116106;28;20668;-88
2023/08/30 06:14:05;;;;;;;9.50;8.47;;;;;;;15.31;100.00;97526.25;4130345;28;20667;-87
2023/08/30 06:16:09;;;;;;;9.60;8.60;;;;;;;15.34;100.00;97523.31;4126119;28;20664;-87
2023/08/30 06:18:12;;;;;;;9.83;8.80;;;;;;;15.37;100.00;97518.59;4133963;28;21076;-86
2023/08/30 06:20:15;;;;;;;10.37;9.27;;;;;;;15.41;100.00;97522.59;4121174;28;21229;-88
2023/08/30 06:22:19;;;;;;;9.83;8.50;;;;;;;15.45;100.00;97528.38;4140837;28;20629;-89
2023/08/30 06:24:24;;;;;;;10.33;8.27;;;;;;;15.49;100.00;97527.09;4145932;28;20621;-89
2023/08/30 06:26:27;;;;;;;10.10;8.60;;;;;;;15.50;100.00;97523.47;4136315;28;20633;-89
2023/08/30 06:28:30;;;;;;;9.73;8.60;;;;;;;15.53;100.00;97516.16;4135671;28;20699;-89
2023/08/30 06:30:33;;;;;;;9.23;8.20;;;;;;;15.56;100.00;97515.84;4131866;28;21008;-90
2023/08/30 06:32:36;;;;;;;10.63;8.37;;;;;;;15.55;100.00;97510.75;4143330;28;20984;-89
2023/08/30 06:34:40;;;;;;;11.80;9.87;;;;;;;15.55;100.00;97511.56;4125998;28;20652;-89
2023/08/30 06:36:43;;;;;;;12.20;8.53;;;;;;;15.59;100.00;97521.63;4134303;28;20695;-89
2023/08/30 06:38:46;;;;;;;10.00;8.50;;;;;;;15.61;100.00;97518.84;4141657;28;20643;-89
2023/08/30 06:40:51;;;;;;;12.17;10.07;;;;;;;15.63;100.00;97520.34;4129244;28;20672;-89
2023/08/30 06:42:54;;;;;;;11.10;9.10;;;;;;;15.67;100.00;97516.44;4119418;28;20645;-89
2023/08/30 06:44:57;;;;;;;11.00;9.57;;;;;;;15.72;100.00;97524.69;4118661;28;20642;-90
2023/08/30 06:47:00;;;;;;;10.23;9.10;;;;;;;15.75;100.00;97531.47;4140799;28;20629;-89
2023/08/30 06:49:09;;;;;;;10.00;8.50;;;;;;;15.78;100.00;97518.84;4126679;28;20634;-89
2023/08/30 06:51:12;;;;;;;12.13;9.07;;;;;;;15.83;100.00;97523.66;4131525;28;20702;-86
2023/08/30 06:53:15;;;;;;;9.97;8.90;;;;;;;15.86;100.00;97526.81;4146911;28;20643;-86
2023/08/30 06:55:19;;;;;;;10.60;9.50;;;;;;;15.91;100.00;97523.75;4122774;28;20641;-86
2023/08/30 06:57:23;;;;;;;10.40;9.30;;;;;;;15.93;100.00;97519.16;4143624;28;20671;-86
2023/08/30 06:59:27;;;;;;;9.60;8.60;;;;;;;15.95;100.00;97517.19;4135518;28;21061;-86
2023/08/30 07:01:30;;;;;;;9.97;8.90;;;;;;;15.97;100.00;97523.97;4133108;28;20680;-86
2023/08/30 07:03:36;;;;;;;9.27;8.37;;;;;;;15.99;100.00;97527.25;4124210;28;20674;-86
2023/08/30 07:05:39;;;;;;;9.80;8.80;;;;;;;16.02;100.00;97521.69;4137277;28;20641;-86
2023/08/30 07:07:42;;;;;;;10.30;8.10;;;;;;;16.07;100.00;97520.28;4138185;28;20631;-85
2023/08/30 07:09:45;;;;;;;9.80;7.90;;;;;;;16.12;100.00;97525.06;4122689;28;20678;-87
2023/08/30 07:11:49;;;;;;;9.57;8.47;;;;;;;16.16;100.00;97523.78;4142251;28;20672;-86
2023/08/30 07:13:53;;;;;;;9.73;8.73;;;;;;;16.18;100.00;97521.84;4129398;28;20732;-87
2023/08/30 07:15:56;;;;;;;9.77;8.77;;;;;;;16.20;100.00;97517.22;4136660;28;20655;-87
2023/08/30 07:17:59;;;;;;;9.77;8.50;;;;;;;16.24;100.00;97514.19;4138918;28;20736;-87
2023/08/30 07:20:04;;;;;;;11.67;9.13;;;;;;;16.28;100.00;97525.22;4134107;28;20645;-87
2023/08/30 07:22:08;;;;;;;9.50;8.60;;;;;;;16.32;100.00;97524.75;4125300;28;20664;-87
2023/08/30 07:24:11;;;;;;;9.40;8.50;;;;;;;16.38;100.00;97531.22;4136297;28;20656;-87
2023/08/30 07:26:14;;;;;;;11.03;9.43;;;;;;;16.43;100.00;97527.13;4118608;28;20734;-87
2023/08/30 07:28:17;;;;;;;9.80;8.80;;;;;;;16.51;100.00;97535.09;4126822;28;20990;-87
2023/08/30 07:30:22;;;;;;;10.20;9.30;;;;;;;16.55;100.00;97532.00;4136138;28;20656;-87
2023/08/30 07:32:25;;;;;;;11.97;9.50;;;;;;;16.58;100.00;97536.97;4138117;28;20633;-87
2023/08/30 07:34:28;;;;;;;10.67;9.57;;;;;;;16.63;100.00;97539.94;4129498;28;20640;-87
2023/08/30 07:36:32;;;;;;;10.83;9.40;;;;;;;16.66;100.00;97537.00;4138799;28;20673;-87
2023/08/30 07:38:49;;;;;;;10.83;9.77;;;;;;;16.72;100.00;97528.50;4125073;28;21408;-94
2023/08/30 07:40:53;;;;;;;9.67;8.77;;;;;;;16.76;100.00;97535.06;4130900;28;22129;-88
2023/08/30 07:42:56;;;;;;;10.30;9.30;;;;;;;16.83;100.00;97530.03;4137473;28;20627;-88
2023/08/30 07:45:03;;;;;;;12.10;10.30;;;;;;;16.90;100.00;97528.41;4133754;28;20638;-88
2023/08/30 07:47:09;;;;;;;10.20;9.20;;;;;;;16.97;100.00;97527.63;4130866;28;20633;-88
2023/08/30 07:49:12;;;;;;;12.03;9.23;;;;;;;17.04;100.00;97540.00;4132404;28;20673;-88
2023/08/30 07:51:15;;;;;;;10.47;9.47;;;;;;;17.13;100.00;97538.25;4128376;28;20648;-86
2023/08/30 07:53:18;;;;;;;10.43;9.50;;;;;;;17.16;100.00;97532.66;4142055;28;21079;-87
2023/08/30 07:55:22;;;;;;;9.93;9.03;;;;;;;17.26;100.00;97539.50;4135470;28;20671;-88
2023/08/30 07:57:25;;;;;;;10.13;9.13;;;;;;;17.35;100.00;97540.31;4133440;28;20654;-87
2023/08/30 07:59:28;;;;;;;9.60;8.70;;;;;;;17.44;100.00;97536.72;4132041;28;20629;-88
2023/08/30 08:01:31;;;;;;;9.73;8.73;;;;;;;17.53;100.00;97536.63;4121067;28;20670;-96
2023/08/30 08:03:37;;;;;;;9.23;8.33;;;;;;;17.60;100.00;97530.50;4132865;28;20650;-91
2023/08/30 08:05:51;;;;;;;10.70;9.60;;;;;;;17.70;100.00;97531.22;4124397;28;20631;-91
2023/08/30 08:07:53;;;;;;;9.70;8.70;;;;;;;17.78;100.00;97528.56;4133936;28;21080;-89
2023/08/30 08:09:57;;;;;;;9.60;8.60;;;;;;;17.89;100.00;97530.06;4140329;28;20642;-89
2023/08/30 08:12:00;;;;;;;10.03;8.80;;;;;;;17.94;100.00;97518.88;4135019;28;20745;-88
2023/08/30 08:14:03;;;;;;;10.53;9.37;;;;;;;18.03;100.00;97517.06;4142141;28;20646;-92
2023/08/30 08:16:06;;;;;;;9.40;8.40;;;;;;;18.13;100.00;97515.09;4142751;28;20641;-93
2023/08/30 08:18:10;;;;;;;9.40;8.50;;;;;;;18.23;100.00;97510.50;4141603;28;20669;-89
2023/08/30 08:20:15;;;;;;;11.17;10.07;;;;;;;18.31;100.00;97516.59;4138435;28;20626;-91
2023/08/30 08:22:18;;;;;;;9.00;8.10;;;;;;;18.38;100.00;97514.94;4127509;28;21260;-88
2023/08/30 08:24:21;;;;;;;10.30;9.30;;;;;;;18.48;100.00;97523.53;4124777;28;20638;-89
2023/08/30 08:26:25;;;;;;;9.33;8.40;;;;;;;18.59;100.00;97523.16;4136761;28;20635;-93
2023/08/30 08:28:28;;;;;;;10.23;9.23;;;;;;;18.70;100.00;97526.31;4125612;28;21707;-92
2023/08/30 08:30:31;;;;;;;9.60;8.70;;;;;;;18.79;100.00;97519.97;4124494;28;20637;-88
2023/08/30 08:32:35;;;;;;;10.10;8.50;;;;;;;18.88;99.61;97518.97;4141313;28;20697;-90
2023/08/30 08:34:38;;;;;;;8.07;7.27;;;;;;;18.94;99.44;97516.47;4136511;28;20642;-90
2023/08/30 08:36:43;;;;;;;9.10;8.10;;;;;;;19.09;100.00;97521.91;4128441;28;20698;-89
2023/08/30 08:38:45;;;;;;;9.93;8.17;;;;;;;19.26;99.39;97520.84;4138416;28;20645;-91
2023/08/30 08:40:57;;;;;;;9.87;8.97;;;;;;;19.37;100.00;97524.75;4119368;28;21067;-90
2023/08/30 08:43:00;;;;;;;9.87;8.53;;;;;;;19.52;100.00;97523.03;4136944;28;21119;-93
2023/08/30 08:45:04;;;;;;;8.87;8.00;;;;;;;19.60;98.89;97533.56;4138889;28;20623;-91
2023/08/30 08:47:09;;;;;;;14.77;13.27;;;;;;;19.64;99.89;97528.75;4137479;28;21177;-92
2023/08/30 08:49:13;;;;;;;9.63;8.73;;;;;;;19.74;98.16;97524.06;4122462;28;21000;-90
2023/08/30 08:51:17;;;;;;;7.53;6.83;;;;;;;19.80;96.78;97513.63;4138128;28;20639;-92
2023/08/30 08:53:22;;;;;;;6.90;6.27;;;;;;;19.86;95.88;97519.06;4121194;28;21204;-91
2023/08/30 08:55:26;;;;;;;7.67;7.00;;;;;;;19.98;93.64;97522.94;4114349;28;21686;-92
2023/08/30 08:57:31;;;;;;;7.20;6.50;;;;;;;20.15;93.86;97521.00;4136961;28;20668;-91
2023/08/30 08:59:34;;;;;;;7.67;6.97;;;;;;;20.32;95.03;97519.88;4139556;28;21059;-91
2023/08/30 09:01:40;;;;;;;7.20;6.50;;;;;;;20.38;92.35;97522.63;4128090;28;20656;-91
2023/08/30 09:03:43;;;;;;;7.17;6.47;;;;;;;20.51;94.39;97522.84;4135565;28;20659;-91
2023/08/30 09:05:48;;;;;;;7.47;6.77;;;;;;;20.61;92.08;97524.25;4136269;28;20715;-91
2023/08/30 09:07:53;;;;;;;7.10;6.50;;;;;;;20.62;89.75;97528.50;4140635;28;21173;-91
2023/08/30 09:09:59;;;;;;;8.13;6.70;;;;;;;20.61;92.27;97534.84;4127911;28;20636;-91
2023/08/30 09:12:03;;;;;;;9.70;8.70;;;;;;;20.54;93.05;97530.44;4121950;28;20642;-92
2023/08/30 09:14:06;;;;;;;11.70;9.30;;;;;;;20.45;92.07;97523.56;4136735;28;20640;-91
2023/08/30 09:16:13;;;;;;;9.80;7.80;;;;;;;20.42;91.90;97531.88;4133792;28;20669;-92
2023/08/30 09:18:16;;;;;;;6.97;6.37;;;;;;;20.37;91.91;97526.25;4128000;28;20667;-93
2023/08/30 09:20:21;;;;;;;7.37;6.70;;;;;;;20.37;93.12;97523.59;4134672;28;20622;-93
2023/08/30 09:22:23;;;;;;;6.70;6.00;;;;;;;20.40;91.54;97526.75;4136913;28;20674;-91
2023/08/30 09:24:27;;;;;;;7.10;6.40;;;;;;;20.52;90.44;97521.81;4136575;28;20737;-92
2023/08/30 09:26:32;;;;;;;6.67;6.07;;;;;;;20.72;89.00;97522.97;4124574;28;20622;-92
2023/08/30 09:28:43;;;;;;;7.00;6.40;;;;;;;20.83;90.81;97526.03;4137103;28;20645;-89
2023/08/30 09:30:50;;;;;;;7.20;6.50;;;;;;;20.86;89.37;97523.00;4120587;28;20630;-88
2023/08/30 09:32:53;;;;;;;6.47;5.87;;;;;;;20.78;87.05;97517.81;4139056;28;21103;-86
2023/08/30 09:34:57;;;;;;;5.53;4.73;;;;;;;20.68;86.61;97509.28;4135032;28;20701;-87